sensor_id;sensor_type;location;lat;lon;timestamp;P1;durP1;ratioP1;P2;durP2;ratioP2
239;SDS011;104;53.590;10.004;2022-12-13T00:02:23;56.80;;;19.50;;
239;SDS011;104;53.590;10.004;2022-12-13T00:04:53;54.83;;;19.10;;
239;SDS011;104;53.590;10.004;2022-12-13T00:07:26;61.40;;;21.40;;
239;SDS011;104;53.590;10.004;2022-12-13T00:09:53;55.57;;;20.20;;
239;SDS011;104;53.590;10.004;2022-12-13T00:12:20;58.60;;;21.83;;
239;SDS011;104;53.590;10.004;2022-12-13T00:14:48;67.20;;;21.60;;
239;SDS011;104;53.590;10.004;2022-12-13T00:17:18;56.30;;;21.13;;
239;SDS011;104;53.590;10.004;2022-12-13T00:19:46;54.53;;;20.03;;
239;SDS011;104;53.590;10.004;2022-12-13T00:22:14;62.37;;;21.67;;
239;SDS011;104;53.590;10.004;2022-12-13T00:24:41;56.97;;;19.77;;
239;SDS011;104;53.590;10.004;2022-12-13T00:27:08;55.93;;;19.03;;
239;SDS011;104;53.590;10.004;2022-12-13T00:29:36;51.37;;;18.07;;
239;SDS011;104;53.590;10.004;2022-12-13T00:32:03;57.63;;;19.60;;
239;SDS011;104;53.590;10.004;2022-12-13T00:34:30;57.17;;;19.73;;
239;SDS011;104;53.590;10.004;2022-12-13T00:36:59;52.23;;;18.70;;
239;SDS011;104;53.590;10.004;2022-12-13T00:39:26;53.67;;;19.50;;
239;SDS011;104;53.590;10.004;2022-12-13T00:41:53;51.80;;;18.60;;
239;SDS011;104;53.590;10.004;2022-12-13T00:44:21;58.77;;;19.33;;
239;SDS011;104;53.590;10.004;2022-12-13T00:46:48;49.70;;;18.00;;
239;SDS011;104;53.590;10.004;2022-12-13T00:49:16;53.97;;;18.60;;
239;SDS011;104;53.590;10.004;2022-12-13T00:51:43;60.20;;;18.87;;
239;SDS011;104;53.590;10.004;2022-12-13T00:54:14;58.23;;;19.30;;
239;SDS011;104;53.590;10.004;2022-12-13T00:56:41;55.03;;;17.30;;
239;SDS011;104;53.590;10.004;2022-12-13T00:59:08;48.30;;;15.97;;
239;SDS011;104;53.590;10.004;2022-12-13T01:01:39;52.87;;;17.40;;
239;SDS011;104;53.590;10.004;2022-12-13T01:04:06;50.00;;;16.63;;
239;SDS011;104;53.590;10.004;2022-12-13T01:06:34;43.57;;;16.70;;
239;SDS011;104;53.590;10.004;2022-12-13T01:09:04;60.23;;;16.20;;
239;SDS011;104;53.590;10.004;2022-12-13T01:11:32;57.10;;;16.07;;
239;SDS011;104;53.590;10.004;2022-12-13T01:14:00;47.97;;;15.27;;
239;SDS011;104;53.590;10.004;2022-12-13T01:16:27;56.80;;;17.53;;
239;SDS011;104;53.590;10.004;2022-12-13T01:18:55;44.40;;;17.27;;
239;SDS011;104;53.590;10.004;2022-12-13T01:21:22;59.40;;;18.30;;
239;SDS011;104;53.590;10.004;2022-12-13T01:23:50;47.23;;;17.20;;
239;SDS011;104;53.590;10.004;2022-12-13T01:26:17;45.33;;;16.33;;
239;SDS011;104;53.590;10.004;2022-12-13T01:28:48;46.03;;;16.40;;
239;SDS011;104;53.590;10.004;2022-12-13T01:31:15;45.97;;;16.97;;
239;SDS011;104;53.590;10.004;2022-12-13T01:33:43;40.23;;;14.67;;
239;SDS011;104;53.590;10.004;2022-12-13T01:36:12;38.57;;;16.13;;
239;SDS011;104;53.590;10.004;2022-12-13T01:38:40;43.50;;;17.03;;
239;SDS011;104;53.590;10.004;2022-12-13T01:41:09;50.27;;;16.83;;
239;SDS011;104;53.590;10.004;2022-12-13T01:46:31;34.47;;;13.93;;
239;SDS011;104;53.590;10.004;2022-12-13T01:49:01;52.43;;;16.70;;
239;SDS011;104;53.590;10.004;2022-12-13T01:51:33;52.27;;;16.27;;
239;SDS011;104;53.590;10.004;2022-12-13T01:54:02;49.60;;;17.43;;
239;SDS011;104;53.590;10.004;2022-12-13T01:56:36;48.10;;;15.97;;
239;SDS011;104;53.590;10.004;2022-12-13T01:59:10;46.60;;;16.23;;
239;SDS011;104;53.590;10.004;2022-12-13T02:01:38;52.07;;;15.90;;
239;SDS011;104;53.590;10.004;2022-12-13T02:04:06;53.03;;;15.27;;
239;SDS011;104;53.590;10.004;2022-12-13T02:06:34;50.03;;;15.20;;
239;SDS011;104;53.590;10.004;2022-12-13T02:09:02;46.73;;;16.33;;
239;SDS011;104;53.590;10.004;2022-12-13T02:11:30;52.67;;;16.20;;
239;SDS011;104;53.590;10.004;2022-12-13T02:13:58;57.90;;;17.17;;
239;SDS011;104;53.590;10.004;2022-12-13T02:16:33;37.60;;;14.20;;
239;SDS011;104;53.590;10.004;2022-12-13T02:19:19;38.60;;;14.07;;
239;SDS011;104;53.590;10.004;2022-12-13T02:22:16;44.33;;;14.80;;
239;SDS011;104;53.590;10.004;2022-12-13T02:25:06;42.13;;;14.90;;
239;SDS011;104;53.590;10.004;2022-12-13T02:28:04;44.37;;;14.47;;
239;SDS011;104;53.590;10.004;2022-12-13T02:30:36;38.63;;;14.00;;
239;SDS011;104;53.590;10.004;2022-12-13T02:33:10;39.23;;;12.20;;
239;SDS011;104;53.590;10.004;2022-12-13T02:35:53;47.80;;;15.30;;
239;SDS011;104;53.590;10.004;2022-12-13T02:38:26;43.60;;;14.50;;
239;SDS011;104;53.590;10.004;2022-12-13T02:41:03;44.80;;;14.17;;
239;SDS011;104;53.590;10.004;2022-12-13T02:43:33;42.27;;;13.77;;
239;SDS011;104;53.590;10.004;2022-12-13T02:46:08;43.33;;;14.70;;
239;SDS011;104;53.590;10.004;2022-12-13T02:48:38;38.90;;;13.20;;
239;SDS011;104;53.590;10.004;2022-12-13T02:51:08;41.53;;;13.70;;
239;SDS011;104;53.590;10.004;2022-12-13T02:53:37;43.20;;;15.40;;
239;SDS011;104;53.590;10.004;2022-12-13T02:56:06;44.37;;;14.90;;
239;SDS011;104;53.590;10.004;2022-12-13T02:58:34;47.27;;;14.77;;
239;SDS011;104;53.590;10.004;2022-12-13T03:01:06;33.43;;;12.10;;
239;SDS011;104;53.590;10.004;2022-12-13T03:03:51;46.53;;;14.73;;
239;SDS011;104;53.590;10.004;2022-12-13T03:06:25;51.17;;;14.20;;
239;SDS011;104;53.590;10.004;2022-12-13T03:09:04;56.87;;;16.00;;
239;SDS011;104;53.590;10.004;2022-12-13T03:11:52;40.97;;;13.73;;
239;SDS011;104;53.590;10.004;2022-12-13T03:14:48;40.80;;;13.17;;
239;SDS011;104;53.590;10.004;2022-12-13T03:17:22;40.57;;;14.20;;
239;SDS011;104;53.590;10.004;2022-12-13T03:19:54;43.40;;;14.80;;
239;SDS011;104;53.590;10.004;2022-12-13T03:22:21;43.47;;;15.93;;
239;SDS011;104;53.590;10.004;2022-12-13T03:24:48;49.70;;;15.73;;
239;SDS011;104;53.590;10.004;2022-12-13T03:27:17;44.13;;;14.27;;
239;SDS011;104;53.590;10.004;2022-12-13T03:29:44;46.13;;;16.00;;
239;SDS011;104;53.590;10.004;2022-12-13T03:32:12;50.30;;;16.57;;
239;SDS011;104;53.590;10.004;2022-12-13T03:34:40;42.57;;;14.03;;
239;SDS011;104;53.590;10.004;2022-12-13T03:37:07;52.10;;;15.57;;
239;SDS011;104;53.590;10.004;2022-12-13T03:39:34;47.00;;;15.00;;
239;SDS011;104;53.590;10.004;2022-12-13T03:42:01;38.80;;;14.43;;
239;SDS011;104;53.590;10.004;2022-12-13T03:44:29;50.53;;;15.80;;
239;SDS011;104;53.590;10.004;2022-12-13T03:46:57;36.93;;;14.37;;
239;SDS011;104;53.590;10.004;2022-12-13T03:49:24;36.33;;;13.37;;
239;SDS011;104;53.590;10.004;2022-12-13T03:51:52;42.80;;;15.93;;
239;SDS011;104;53.590;10.004;2022-12-13T03:54:19;40.63;;;14.33;;
239;SDS011;104;53.590;10.004;2022-12-13T03:56:46;45.80;;;15.80;;
239;SDS011;104;53.590;10.004;2022-12-13T03:59:13;43.33;;;14.77;;
239;SDS011;104;53.590;10.004;2022-12-13T04:01:40;41.93;;;15.17;;
239;SDS011;104;53.590;10.004;2022-12-13T04:04:07;61.33;;;15.40;;
239;SDS011;104;53.590;10.004;2022-12-13T04:06:34;40.10;;;12.80;;
239;SDS011;104;53.590;10.004;2022-12-13T04:09:02;33.80;;;12.93;;
239;SDS011;104;53.590;10.004;2022-12-13T04:11:29;41.60;;;15.37;;
239;SDS011;104;53.590;10.004;2022-12-13T04:14:14;34.17;;;13.37;;
239;SDS011;104;53.590;10.004;2022-12-13T04:16:41;38.77;;;13.90;;
239;SDS011;104;53.590;10.004;2022-12-13T04:19:08;34.67;;;12.63;;
239;SDS011;104;53.590;10.004;2022-12-13T04:21:35;36.10;;;12.50;;
239;SDS011;104;53.590;10.004;2022-12-13T04:24:04;45.47;;;13.53;;
239;SDS011;104;53.590;10.004;2022-12-13T04:26:31;51.47;;;13.97;;
239;SDS011;104;53.590;10.004;2022-12-13T04:28:58;38.30;;;14.10;;
239;SDS011;104;53.590;10.004;2022-12-13T04:31:25;37.87;;;14.60;;
239;SDS011;104;53.590;10.004;2022-12-13T04:33:52;34.73;;;13.93;;
239;SDS011;104;53.590;10.004;2022-12-13T04:36:19;43.27;;;15.27;;
239;SDS011;104;53.590;10.004;2022-12-13T04:38:46;59.53;;;14.13;;
239;SDS011;104;53.590;10.004;2022-12-13T04:41:15;75.13;;;15.03;;
239;SDS011;104;53.590;10.004;2022-12-13T04:43:46;43.00;;;13.87;;
239;SDS011;104;53.590;10.004;2022-12-13T04:46:16;43.53;;;13.93;;
239;SDS011;104;53.590;10.004;2022-12-13T04:48:43;40.07;;;14.40;;
239;SDS011;104;53.590;10.004;2022-12-13T04:51:11;50.77;;;16.40;;
239;SDS011;104;53.590;10.004;2022-12-13T04:53:39;34.23;;;11.97;;
239;SDS011;104;53.590;10.004;2022-12-13T04:56:06;50.77;;;16.97;;
239;SDS011;104;53.590;10.004;2022-12-13T04:58:35;43.70;;;14.83;;
239;SDS011;104;53.590;10.004;2022-12-13T05:01:05;45.63;;;16.80;;
239;SDS011;104;53.590;10.004;2022-12-13T05:03:33;43.17;;;15.53;;
239;SDS011;104;53.590;10.004;2022-12-13T05:06:03;45.80;;;14.40;;
239;SDS011;104;53.590;10.004;2022-12-13T05:08:30;38.17;;;12.27;;
239;SDS011;104;53.590;10.004;2022-12-13T05:10:58;48.77;;;14.50;;
239;SDS011;104;53.590;10.004;2022-12-13T05:13:25;47.53;;;15.40;;
239;SDS011;104;53.590;10.004;2022-12-13T05:15:58;49.33;;;15.03;;
239;SDS011;104;53.590;10.004;2022-12-13T05:18:26;40.23;;;14.07;;
239;SDS011;104;53.590;10.004;2022-12-13T05:20:55;42.07;;;14.00;;
239;SDS011;104;53.590;10.004;2022-12-13T05:23:26;38.60;;;15.80;;
239;SDS011;104;53.590;10.004;2022-12-13T05:25:53;46.87;;;14.87;;
239;SDS011;104;53.590;10.004;2022-12-13T05:28:21;39.33;;;14.33;;
239;SDS011;104;53.590;10.004;2022-12-13T05:30:50;43.87;;;15.43;;
239;SDS011;104;53.590;10.004;2022-12-13T05:33:18;43.23;;;14.50;;
239;SDS011;104;53.590;10.004;2022-12-13T05:35:45;45.43;;;14.77;;
239;SDS011;104;53.590;10.004;2022-12-13T05:38:13;50.33;;;15.90;;
239;SDS011;104;53.590;10.004;2022-12-13T05:40:40;43.67;;;16.10;;
239;SDS011;104;53.590;10.004;2022-12-13T05:43:07;41.37;;;16.07;;
239;SDS011;104;53.590;10.004;2022-12-13T05:45:35;35.60;;;13.97;;
239;SDS011;104;53.590;10.004;2022-12-13T05:48:03;41.07;;;14.90;;
239;SDS011;104;53.590;10.004;2022-12-13T05:50:31;47.23;;;15.07;;
239;SDS011;104;53.590;10.004;2022-12-13T05:52:58;47.60;;;14.50;;
239;SDS011;104;53.590;10.004;2022-12-13T05:55:25;36.50;;;12.43;;
239;SDS011;104;53.590;10.004;2022-12-13T05:57:52;41.97;;;13.57;;
239;SDS011;104;53.590;10.004;2022-12-13T06:00:19;48.07;;;14.23;;
239;SDS011;104;53.590;10.004;2022-12-13T06:02:47;46.40;;;15.60;;
239;SDS011;104;53.590;10.004;2022-12-13T06:05:14;35.97;;;13.73;;
239;SDS011;104;53.590;10.004;2022-12-13T06:07:42;45.57;;;14.00;;
239;SDS011;104;53.590;10.004;2022-12-13T06:10:09;32.60;;;13.60;;
239;SDS011;104;53.590;10.004;2022-12-13T06:12:37;41.10;;;14.37;;
239;SDS011;104;53.590;10.004;2022-12-13T06:15:05;75.87;;;16.07;;
239;SDS011;104;53.590;10.004;2022-12-13T06:17:33;40.40;;;15.07;;
239;SDS011;104;53.590;10.004;2022-12-13T06:20:02;57.93;;;15.43;;
239;SDS011;104;53.590;10.004;2022-12-13T06:22:29;43.10;;;14.70;;
239;SDS011;104;53.590;10.004;2022-12-13T06:24:59;42.37;;;15.50;;
239;SDS011;104;53.590;10.004;2022-12-13T06:27:26;48.20;;;15.53;;
239;SDS011;104;53.590;10.004;2022-12-13T06:29:54;84.73;;;16.40;;
239;SDS011;104;53.590;10.004;2022-12-13T06:32:21;48.87;;;15.20;;
239;SDS011;104;53.590;10.004;2022-12-13T06:34:48;44.03;;;14.83;;
239;SDS011;104;53.590;10.004;2022-12-13T06:37:15;42.20;;;13.43;;
239;SDS011;104;53.590;10.004;2022-12-13T06:39:42;46.80;;;15.00;;
239;SDS011;104;53.590;10.004;2022-12-13T06:42:15;38.40;;;14.20;;
239;SDS011;104;53.590;10.004;2022-12-13T06:44:43;42.07;;;14.80;;
239;SDS011;104;53.590;10.004;2022-12-13T06:47:10;48.43;;;14.60;;
239;SDS011;104;53.590;10.004;2022-12-13T06:49:37;37.97;;;14.17;;
239;SDS011;104;53.590;10.004;2022-12-13T06:52:07;42.17;;;14.20;;
239;SDS011;104;53.590;10.004;2022-12-13T06:54:35;44.23;;;15.40;;
239;SDS011;104;53.590;10.004;2022-12-13T06:57:02;49.90;;;15.90;;
239;SDS011;104;53.590;10.004;2022-12-13T06:59:31;37.83;;;14.50;;
239;SDS011;104;53.590;10.004;2022-12-13T07:01:58;50.27;;;16.47;;
239;SDS011;104;53.590;10.004;2022-12-13T07:04:25;40.67;;;14.40;;
239;SDS011;104;53.590;10.004;2022-12-13T07:06:52;44.67;;;15.37;;
239;SDS011;104;53.590;10.004;2022-12-13T07:09:19;57.90;;;17.47;;
239;SDS011;104;53.590;10.004;2022-12-13T07:11:46;52.40;;;17.03;;
239;SDS011;104;53.590;10.004;2022-12-13T07:14:13;51.43;;;16.27;;
239;SDS011;104;53.590;10.004;2022-12-13T07:16:42;42.57;;;14.50;;
239;SDS011;104;53.590;10.004;2022-12-13T07:19:09;47.33;;;15.43;;
239;SDS011;104;53.590;10.004;2022-12-13T07:21:37;65.00;;;16.43;;
239;SDS011;104;53.590;10.004;2022-12-13T07:24:04;49.10;;;16.70;;
239;SDS011;104;53.590;10.004;2022-12-13T07:26:32;56.40;;;14.97;;
239;SDS011;104;53.590;10.004;2022-12-13T07:28:59;40.07;;;14.43;;
239;SDS011;104;53.590;10.004;2022-12-13T07:31:26;39.87;;;14.27;;
239;SDS011;104;53.590;10.004;2022-12-13T07:33:54;45.23;;;15.03;;
239;SDS011;104;53.590;10.004;2022-12-13T07:36:22;35.63;;;13.20;;
239;SDS011;104;53.590;10.004;2022-12-13T07:38:49;38.73;;;14.00;;
239;SDS011;104;53.590;10.004;2022-12-13T07:41:17;47.87;;;14.50;;
239;SDS011;104;53.590;10.004;2022-12-13T07:43:45;45.53;;;16.17;;
239;SDS011;104;53.590;10.004;2022-12-13T07:46:12;36.90;;;14.07;;
239;SDS011;104;53.590;10.004;2022-12-13T07:48:39;38.80;;;14.40;;
239;SDS011;104;53.590;10.004;2022-12-13T07:51:08;41.67;;;14.90;;
239;SDS011;104;53.590;10.004;2022-12-13T07:53:36;48.10;;;15.57;;
239;SDS011;104;53.590;10.004;2022-12-13T07:56:05;39.00;;;13.60;;
239;SDS011;104;53.590;10.004;2022-12-13T07:58:33;41.77;;;13.80;;
239;SDS011;104;53.590;10.004;2022-12-13T08:01:01;38.27;;;14.30;;
239;SDS011;104;53.590;10.004;2022-12-13T08:03:29;48.57;;;17.37;;
239;SDS011;104;53.590;10.004;2022-12-13T08:05:59;42.70;;;16.27;;
239;SDS011;104;53.590;10.004;2022-12-13T08:08:29;46.73;;;15.77;;
239;SDS011;104;53.590;10.004;2022-12-13T08:10:59;63.67;;;15.90;;
239;SDS011;104;53.590;10.004;2022-12-13T08:13:26;49.70;;;17.27;;
239;SDS011;104;53.590;10.004;2022-12-13T08:15:56;69.07;;;15.60;;
239;SDS011;104;53.590;10.004;2022-12-13T08:18:24;43.60;;;15.90;;
239;SDS011;104;53.590;10.004;2022-12-13T08:20:51;38.10;;;14.00;;
239;SDS011;104;53.590;10.004;2022-12-13T08:23:19;48.70;;;15.93;;
239;SDS011;104;53.590;10.004;2022-12-13T08:25:50;43.03;;;14.70;;
239;SDS011;104;53.590;10.004;2022-12-13T08:28:17;48.10;;;14.50;;
239;SDS011;104;53.590;10.004;2022-12-13T08:30:44;48.07;;;14.83;;
239;SDS011;104;53.590;10.004;2022-12-13T08:33:13;46.13;;;15.03;;
239;SDS011;104;53.590;10.004;2022-12-13T08:35:40;37.20;;;14.73;;
239;SDS011;104;53.590;10.004;2022-12-13T08:38:07;44.90;;;14.70;;
239;SDS011;104;53.590;10.004;2022-12-13T08:40:35;43.70;;;15.07;;
239;SDS011;104;53.590;10.004;2022-12-13T08:43:04;40.07;;;14.83;;
239;SDS011;104;53.590;10.004;2022-12-13T08:45:31;41.47;;;15.10;;
239;SDS011;104;53.590;10.004;2022-12-13T08:47:59;39.33;;;15.37;;
239;SDS011;104;53.590;10.004;2022-12-13T08:50:28;41.20;;;14.20;;
239;SDS011;104;53.590;10.004;2022-12-13T08:52:56;42.60;;;16.10;;
239;SDS011;104;53.590;10.004;2022-12-13T08:55:23;49.13;;;15.67;;
239;SDS011;104;53.590;10.004;2022-12-13T08:57:51;40.60;;;14.33;;
239;SDS011;104;53.590;10.004;2022-12-13T09:00:19;48.90;;;15.80;;
239;SDS011;104;53.590;10.004;2022-12-13T09:02:47;52.33;;;17.33;;
239;SDS011;104;53.590;10.004;2022-12-13T09:05:14;50.23;;;15.37;;
239;SDS011;104;53.590;10.004;2022-12-13T09:07:42;45.00;;;14.90;;
239;SDS011;104;53.590;10.004;2022-12-13T09:10:09;45.50;;;16.60;;
239;SDS011;104;53.590;10.004;2022-12-13T09:12:39;25.97;;;10.90;;
239;SDS011;104;53.590;10.004;2022-12-13T09:15:08;42.67;;;15.90;;
239;SDS011;104;53.590;10.004;2022-12-13T09:17:37;47.50;;;16.13;;
239;SDS011;104;53.590;10.004;2022-12-13T09:20:05;74.97;;;16.17;;
239;SDS011;104;53.590;10.004;2022-12-13T09:22:35;43.20;;;16.40;;
239;SDS011;104;53.590;10.004;2022-12-13T09:25:03;51.13;;;16.53;;
239;SDS011;104;53.590;10.004;2022-12-13T09:27:31;47.80;;;16.70;;
239;SDS011;104;53.590;10.004;2022-12-13T09:29:58;51.90;;;17.70;;
239;SDS011;104;53.590;10.004;2022-12-13T09:32:25;53.17;;;17.20;;
239;SDS011;104;53.590;10.004;2022-12-13T09:34:54;62.10;;;16.00;;
239;SDS011;104;53.590;10.004;2022-12-13T09:37:21;45.30;;;16.43;;
239;SDS011;104;53.590;10.004;2022-12-13T09:39:49;62.73;;;18.13;;
239;SDS011;104;53.590;10.004;2022-12-13T09:42:17;55.50;;;17.73;;
239;SDS011;104;53.590;10.004;2022-12-13T09:44:48;45.63;;;16.97;;
239;SDS011;104;53.590;10.004;2022-12-13T09:47:23;59.33;;;18.03;;
239;SDS011;104;53.590;10.004;2022-12-13T09:49:52;61.87;;;17.83;;
239;SDS011;104;53.590;10.004;2022-12-13T09:52:24;53.10;;;18.80;;
239;SDS011;104;53.590;10.004;2022-12-13T09:54:54;47.00;;;17.07;;
239;SDS011;104;53.590;10.004;2022-12-13T09:57:24;41.63;;;16.13;;
239;SDS011;104;53.590;10.004;2022-12-13T09:59:54;49.37;;;18.07;;
239;SDS011;104;53.590;10.004;2022-12-13T10:02:24;53.63;;;17.23;;
239;SDS011;104;53.590;10.004;2022-12-13T10:04:56;45.03;;;15.70;;
239;SDS011;104;53.590;10.004;2022-12-13T10:10:24;45.17;;;17.63;;
239;SDS011;104;53.590;10.004;2022-12-13T10:12:53;113.97;;;32.57;;
239;SDS011;104;53.590;10.004;2022-12-13T10:15:24;48.83;;;17.03;;
239;SDS011;104;53.590;10.004;2022-12-13T10:18:24;46.20;;;17.10;;
239;SDS011;104;53.590;10.004;2022-12-13T10:20:53;49.03;;;17.03;;
239;SDS011;104;53.590;10.004;2022-12-13T10:23:33;39.57;;;16.30;;
239;SDS011;104;53.590;10.004;2022-12-13T10:26:14;39.30;;;16.07;;
239;SDS011;104;53.590;10.004;2022-12-13T10:28:42;42.37;;;16.57;;
239;SDS011;104;53.590;10.004;2022-12-13T10:31:14;44.77;;;16.57;;
239;SDS011;104;53.590;10.004;2022-12-13T10:33:49;45.50;;;17.17;;
239;SDS011;104;53.590;10.004;2022-12-13T10:36:29;41.10;;;16.30;;
239;SDS011;104;53.590;10.004;2022-12-13T10:39:02;44.03;;;16.33;;
239;SDS011;104;53.590;10.004;2022-12-13T10:41:31;39.93;;;16.20;;
239;SDS011;104;53.590;10.004;2022-12-13T10:44:11;52.73;;;17.80;;
239;SDS011;104;53.590;10.004;2022-12-13T10:46:41;39.27;;;15.60;;
239;SDS011;104;53.590;10.004;2022-12-13T10:49:15;45.70;;;18.53;;
239;SDS011;104;53.590;10.004;2022-12-13T10:51:44;50.23;;;17.77;;
239;SDS011;104;53.590;10.004;2022-12-13T10:54:15;48.93;;;16.40;;
239;SDS011;104;53.590;10.004;2022-12-13T10:56:47;59.57;;;17.47;;
239;SDS011;104;53.590;10.004;2022-12-13T10:59:23;43.03;;;16.30;;
239;SDS011;104;53.590;10.004;2022-12-13T11:01:51;45.77;;;15.70;;
239;SDS011;104;53.590;10.004;2022-12-13T11:04:23;47.47;;;17.20;;
239;SDS011;104;53.590;10.004;2022-12-13T11:06:56;47.23;;;16.90;;
239;SDS011;104;53.590;10.004;2022-12-13T11:09:26;45.70;;;16.80;;
239;SDS011;104;53.590;10.004;2022-12-13T11:11:54;53.10;;;15.97;;
239;SDS011;104;53.590;10.004;2022-12-13T11:14:23;44.17;;;16.83;;
239;SDS011;104;53.590;10.004;2022-12-13T11:16:52;43.17;;;14.60;;
239;SDS011;104;53.590;10.004;2022-12-13T11:19:25;46.80;;;15.93;;
239;SDS011;104;53.590;10.004;2022-12-13T11:21:55;57.60;;;17.70;;
239;SDS011;104;53.590;10.004;2022-12-13T11:24:23;42.77;;;15.00;;
239;SDS011;104;53.590;10.004;2022-12-13T11:26:52;48.03;;;15.40;;
239;SDS011;104;53.590;10.004;2022-12-13T11:29:30;37.30;;;14.07;;
239;SDS011;104;53.590;10.004;2022-12-13T11:32:01;47.60;;;15.63;;
239;SDS011;104;53.590;10.004;2022-12-13T11:34:35;32.50;;;14.03;;
239;SDS011;104;53.590;10.004;2022-12-13T11:37:08;41.30;;;15.23;;
239;SDS011;104;53.590;10.004;2022-12-13T11:39:46;36.47;;;14.27;;
239;SDS011;104;53.590;10.004;2022-12-13T11:42:18;47.83;;;13.80;;
239;SDS011;104;53.590;10.004;2022-12-13T11:44:53;43.37;;;14.80;;
239;SDS011;104;53.590;10.004;2022-12-13T11:47:41;34.73;;;13.73;;
239;SDS011;104;53.590;10.004;2022-12-13T11:50:15;60.13;;;14.90;;
239;SDS011;104;53.590;10.004;2022-12-13T11:52:45;43.17;;;14.37;;
239;SDS011;104;53.590;10.004;2022-12-13T11:55:17;34.60;;;13.80;;
239;SDS011;104;53.590;10.004;2022-12-13T11:57:51;38.23;;;13.40;;
239;SDS011;104;53.590;10.004;2022-12-13T12:00:26;47.03;;;15.40;;
239;SDS011;104;53.590;10.004;2022-12-13T12:02:58;44.00;;;14.27;;
239;SDS011;104;53.590;10.004;2022-12-13T12:05:29;60.27;;;18.20;;
239;SDS011;104;53.590;10.004;2022-12-13T12:08:01;42.50;;;12.00;;
239;SDS011;104;53.590;10.004;2022-12-13T12:10:32;27.20;;;11.27;;
239;SDS011;104;53.590;10.004;2022-12-13T12:13:03;43.10;;;14.40;;
239;SDS011;104;53.590;10.004;2022-12-13T12:15:39;38.43;;;11.70;;
239;SDS011;104;53.590;10.004;2022-12-13T12:18:10;27.87;;;11.70;;
239;SDS011;104;53.590;10.004;2022-12-13T12:20:46;29.53;;;11.47;;
239;SDS011;104;53.590;10.004;2022-12-13T12:23:24;25.37;;;10.53;;
239;SDS011;104;53.590;10.004;2022-12-13T12:25:54;27.13;;;10.23;;
239;SDS011;104;53.590;10.004;2022-12-13T12:28:28;55.83;;;13.70;;
239;SDS011;104;53.590;10.004;2022-12-13T12:30:59;32.93;;;11.43;;
239;SDS011;104;53.590;10.004;2022-12-13T12:33:35;42.37;;;10.30;;
239;SDS011;104;53.590;10.004;2022-12-13T12:36:16;31.63;;;11.90;;
239;SDS011;104;53.590;10.004;2022-12-13T12:39:06;37.13;;;11.33;;
239;SDS011;104;53.590;10.004;2022-12-13T12:41:51;30.83;;;12.00;;
239;SDS011;104;53.590;10.004;2022-12-13T12:44:29;29.70;;;12.30;;
239;SDS011;104;53.590;10.004;2022-12-13T12:47:14;27.70;;;11.50;;
239;SDS011;104;53.590;10.004;2022-12-13T12:52:50;29.27;;;13.57;;
239;SDS011;104;53.590;10.004;2022-12-13T12:55:42;27.40;;;12.53;;
239;SDS011;104;53.590;10.004;2022-12-13T12:58:22;28.10;;;12.40;;
239;SDS011;104;53.590;10.004;2022-12-13T13:01:01;73.30;;;12.70;;
239;SDS011;104;53.590;10.004;2022-12-13T13:03:39;25.37;;;12.87;;
239;SDS011;104;53.590;10.004;2022-12-13T13:06:09;29.50;;;11.97;;
239;SDS011;104;53.590;10.004;2022-12-13T13:14:38;27.17;;;12.53;;
239;SDS011;104;53.590;10.004;2022-12-13T13:32:39;27.90;;;10.93;;
239;SDS011;104;53.590;10.004;2022-12-13T13:47:39;32.37;;;11.30;;
239;SDS011;104;53.590;10.004;2022-12-13T14:46:21;29.33;;;11.20;;
239;SDS011;104;53.590;10.004;2022-12-13T14:48:50;30.53;;;12.60;;
239;SDS011;104;53.590;10.004;2022-12-13T14:54:16;31.77;;;11.63;;
239;SDS011;104;53.590;10.004;2022-12-13T14:56:54;30.20;;;12.50;;
239;SDS011;104;53.590;10.004;2022-12-13T14:59:24;34.07;;;11.90;;
239;SDS011;104;53.590;10.004;2022-12-13T15:04:46;43.63;;;13.47;;
239;SDS011;104;53.590;10.004;2022-12-13T15:07:35;67.67;;;12.23;;
239;SDS011;104;53.590;10.004;2022-12-13T15:10:19;35.40;;;13.37;;
239;SDS011;104;53.590;10.004;2022-12-13T15:12:49;32.93;;;12.67;;
239;SDS011;104;53.590;10.004;2022-12-13T15:15:41;32.93;;;12.07;;
239;SDS011;104;53.590;10.004;2022-12-13T15:24:18;27.67;;;10.90;;
239;SDS011;104;53.590;10.004;2022-12-13T15:26:50;35.77;;;11.07;;
239;SDS011;104;53.590;10.004;2022-12-13T15:29:18;23.43;;;10.70;;
239;SDS011;104;53.590;10.004;2022-12-13T15:31:47;29.13;;;12.43;;
239;SDS011;104;53.590;10.004;2022-12-13T15:34:31;44.27;;;13.40;;
239;SDS011;104;53.590;10.004;2022-12-13T15:37:00;24.80;;;11.27;;
239;SDS011;104;53.590;10.004;2022-12-13T15:39:35;26.67;;;11.20;;
239;SDS011;104;53.590;10.004;2022-12-13T15:42:12;30.33;;;12.20;;
239;SDS011;104;53.590;10.004;2022-12-13T15:44:45;36.97;;;12.50;;
239;SDS011;104;53.590;10.004;2022-12-13T15:47:30;32.33;;;11.80;;
239;SDS011;104;53.590;10.004;2022-12-13T15:49:59;44.90;;;11.37;;
239;SDS011;104;53.590;10.004;2022-12-13T15:52:33;35.10;;;11.37;;
239;SDS011;104;53.590;10.004;2022-12-13T15:55:21;27.87;;;11.80;;
239;SDS011;104;53.590;10.004;2022-12-13T15:58:16;33.33;;;13.10;;
239;SDS011;104;53.590;10.004;2022-12-13T16:01:23;50.63;;;14.50;;
239;SDS011;104;53.590;10.004;2022-12-13T16:03:59;38.40;;;14.27;;
239;SDS011;104;53.590;10.004;2022-12-13T16:07:03;38.70;;;14.03;;
239;SDS011;104;53.590;10.004;2022-12-13T16:09:51;37.13;;;13.40;;
239;SDS011;104;53.590;10.004;2022-12-13T16:12:29;41.33;;;15.57;;
239;SDS011;104;53.590;10.004;2022-12-13T16:18:22;51.37;;;16.10;;
239;SDS011;104;53.590;10.004;2022-12-13T16:20:53;39.33;;;14.17;;
239;SDS011;104;53.590;10.004;2022-12-13T16:23:21;37.80;;;13.83;;
239;SDS011;104;53.590;10.004;2022-12-13T16:25:48;33.70;;;13.07;;
239;SDS011;104;53.590;10.004;2022-12-13T16:28:17;33.63;;;14.50;;
239;SDS011;104;53.590;10.004;2022-12-13T16:30:53;43.50;;;15.10;;
239;SDS011;104;53.590;10.004;2022-12-13T16:33:27;39.93;;;14.97;;
239;SDS011;104;53.590;10.004;2022-12-13T16:35:55;50.10;;;14.07;;
239;SDS011;104;53.590;10.004;2022-12-13T16:38:23;43.90;;;14.27;;
239;SDS011;104;53.590;10.004;2022-12-13T16:40:52;43.40;;;14.50;;
239;SDS011;104;53.590;10.004;2022-12-13T16:43:23;48.07;;;18.20;;
239;SDS011;104;53.590;10.004;2022-12-13T16:45:53;52.37;;;18.97;;
239;SDS011;104;53.590;10.004;2022-12-13T16:48:21;44.97;;;16.73;;
239;SDS011;104;53.590;10.004;2022-12-13T16:50:50;55.70;;;16.13;;
239;SDS011;104;53.590;10.004;2022-12-13T16:53:18;54.93;;;18.37;;
239;SDS011;104;53.590;10.004;2022-12-13T16:55:46;46.50;;;15.23;;
239;SDS011;104;53.590;10.004;2022-12-13T16:58:14;42.40;;;15.00;;
239;SDS011;104;53.590;10.004;2022-12-13T17:00:45;74.40;;;16.03;;
239;SDS011;104;53.590;10.004;2022-12-13T17:03:13;49.20;;;17.50;;
239;SDS011;104;53.590;10.004;2022-12-13T17:05:42;37.63;;;14.03;;
239;SDS011;104;53.590;10.004;2022-12-13T17:08:10;43.50;;;14.30;;
239;SDS011;104;53.590;10.004;2022-12-13T17:10:38;32.80;;;13.17;;
239;SDS011;104;53.590;10.004;2022-12-13T17:13:07;37.43;;;14.20;;
239;SDS011;104;53.590;10.004;2022-12-13T17:15:35;39.60;;;14.97;;
239;SDS011;104;53.590;10.004;2022-12-13T17:18:07;41.93;;;14.80;;